KYNG/YNG METAR and TAF weather

Enter ICAO airport designator
Station Type Date Time Source
KYNG METAR 2022/11/30 10:31 UTC NOAA

KYNG 301031Z 15010KT 4SM RA BR BKN006 OVC014 09/08 A2961 RMK AO2 P0021 T00940078


Station Type Date Time Source
KYNG Decoded METAR 2022/11/30 10:31 UTC NOAA

YOUNGSTOWN-WARREN REG AIRPRT, OH, United States (KYNG) 41-15N 080-40W 360M
Nov 30, 2022 - 05:31 AM EST / 2022.11.30 1031 UTC
Wind: from the SSE (150 degrees) at 12 MPH (10 KT):0
Visibility: 4 mile(s):0
Sky conditions: overcast
Weather: rain; mist
Precipitation last hour: 0.21 inches
Temperature: 48.9 F (9.4 C)
Dew Point: 46.0 F (7.8 C)
Relative Humidity: 89%
Pressure (altimeter): 29.61 in. Hg (1002 hPa)
ob: KYNG 301031Z 15010KT 4SM RA BR BKN006 OVC014 09/08 A2961 RMK AO2 P0021 T00940078
cycle: 10

Station Type Date Time Source
KYNG TAF 2022/11/30 06:22 UTC NOAA

TAF KYNG 300520Z 3006/0106 16012G20KT P6SM VCSH BKN050 WS020/19050KT
FM300900 17015G22KT 4SM -SHRA BKN025 WS020/20050KT
FM301200 20015G25KT 3SM -SHRA BR BKN015
FM301500 27020G28KT P6SM VCSH BKN025
FM302200 27020G28KT P6SM VCSH OVC035
FM010000 27021G29KT P6SM OVC050

Example: see airport list